Time,TemperatureF,DewpointF,PressureIn,WindDirection,WindDirectionDegrees,WindSpeedMPH,WindSpeedGustMPH,Humidity,HourlyPrecipIn,Conditions,Clouds,dailyrainin,SoftwareType,DateUTC
2013-02-02 00:29:00,54.6,27.5,30.12,East,80,3.0,6.0,35,0.00,,,0.00,VWS V14.01,2013-02-02 08:29:00,
2013-02-02 00:59:00,53.7,31.8,30.11,ENE,75,1.0,5.0,43,0.00,,,0.00,VWS V14.01,2013-02-02 08:59:00,
2013-02-02 01:29:00,56.0,28.0,30.11,East,96,0.0,6.0,34,0.00,,,0.00,VWS V14.01,2013-02-02 09:29:00,
2013-02-02 01:59:00,57.9,25.0,30.10,ENE,78,5.0,9.0,28,0.00,,,0.00,VWS V14.01,2013-02-02 09:59:00,
2013-02-02 02:29:00,56.9,25.0,30.11,ENE,76,0.0,5.0,29,0.00,,,0.00,VWS V14.01,2013-02-02 10:29:00,
2013-02-02 02:59:00,50.8,29.1,30.11,East,80,2.0,5.0,43,0.00,,,0.00,VWS V14.01,2013-02-02 10:59:00,
2013-02-02 03:29:00,48.9,28.0,30.10,East,79,3.0,7.0,44,0.00,,,0.00,VWS V14.01,2013-02-02 11:29:00,
2013-02-02 03:59:00,49.7,28.7,30.10,ENE,73,4.0,8.0,44,0.00,,,0.00,VWS V14.01,2013-02-02 11:59:00,
2013-02-02 04:29:00,48.5,29.7,30.11,ENE,77,3.0,8.0,48,0.00,,,0.00,VWS V14.01,2013-02-02 12:29:00,
2013-02-02 04:59:00,48.2,30.0,30.10,ENE,77,1.0,8.0,49,0.00,,,0.00,VWS V14.01,2013-02-02 12:59:00,
2013-02-02 05:29:00,47.4,29.2,30.11,East,83,6.0,7.0,49,0.00,,,0.00,VWS V14.01,2013-02-02 13:29:00,
2013-02-02 05:59:00,46.0,28.4,30.10,East,83,0.0,7.0,50,0.00,,,0.00,VWS V14.01,2013-02-02 13:59:00,
2013-02-02 06:29:00,48.7,24.9,30.11,East,80,0.0,5.0,39,0.00,,,0.00,VWS V14.01,2013-02-02 14:29:00,
2013-02-02 07:29:00,56.4,24.6,30.12,East,86,0.0,10.0,29,0.00,,,0.00,VWS V14.01,2013-02-02 15:29:00,
2013-02-02 07:59:00,58.0,26.0,30.12,East,95,3.0,9.0,29,0.00,,,0.00,VWS V14.01,2013-02-02 15:59:00,
2013-02-02 08:29:00,61.8,25.6,30.13,East,101,8.0,11.0,25,0.00,,,0.00,VWS V14.01,2013-02-02 16:29:00,
2013-02-02 08:59:00,64.9,27.3,30.13,East,93,6.0,13.0,24,0.00,,,0.00,VWS V14.01,2013-02-02 16:59:00,
2013-02-02 09:29:00,66.8,28.9,30.13,ENE,57,8.0,16.0,24,0.00,,,0.00,VWS V14.01,2013-02-02 17:29:00,
2013-02-02 09:59:00,67.3,29.3,30.13,East,84,11.0,18.0,24,0.00,,,0.00,VWS V14.01,2013-02-02 17:59:00,
2013-02-02 10:29:00,66.8,27.8,30.12,East,83,8.0,19.0,23,0.00,,,0.00,VWS V14.01,2013-02-02 18:29:00,
2013-02-02 10:59:00,68.0,29.9,30.12,East,83,9.0,17.0,24,0.00,,,0.00,VWS V14.01,2013-02-02 18:59:00,
2013-02-02 11:29:00,69.7,28.0,30.11,East,89,7.0,18.0,21,0.00,,,0.00,VWS V14.01,2013-02-02 19:29:00,
2013-02-02 11:59:00,69.9,28.2,30.09,East,98,7.0,12.0,21,0.00,,,0.00,VWS V14.01,2013-02-02 19:59:00,
2013-02-02 12:29:00,71.3,25.6,30.07,East,91,0.0,10.0,18,0.00,,,0.00,VWS V14.01,2013-02-02 20:29:00,
2013-02-02 12:59:00,73.0,30.8,30.06,SE,141,5.0,8.0,21,0.00,,,0.00,VWS V14.01,2013-02-02 20:59:00,
2013-02-02 13:29:00,71.9,29.9,30.05,West,276,1.0,11.0,21,0.00,,,0.00,VWS V14.01,2013-02-02 21:29:00,
2013-02-02 13:59:00,70.1,33.7,30.05,WSW,245,2.0,9.0,26,0.00,,,0.00,VWS V14.01,2013-02-02 21:59:00,
2013-02-02 14:29:00,68.3,33.1,30.05,WSW,241,3.0,8.0,27,0.00,,,0.00,VWS V14.01,2013-02-02 22:29:00,
2013-02-02 14:59:00,66.7,35.1,30.05,West,260,0.0,8.0,31,0.00,,,0.00,VWS V14.01,2013-02-02 22:59:00,
2013-02-02 15:29:00,66.0,36.1,30.05,West,260,0.0,3.0,33,0.00,,,0.00,VWS V14.01,2013-02-02 23:29:00,
2013-02-02 15:59:00,65.2,38.3,30.05,West,260,0.0,2.0,37,0.00,,,0.00,VWS V14.01,2013-02-02 23:59:00,
2013-02-02 16:29:00,64.3,38.2,30.05,West,260,0.0,2.0,38,0.00,,,0.00,VWS V14.01,2013-02-03 00:29:00,
2013-02-02 16:59:00,62.6,42.1,30.05,West,260,0.0,1.0,47,0.00,,,0.00,VWS V14.01,2013-02-03 00:59:00,
2013-02-02 17:29:00,59.6,39.9,30.05,East,79,2.0,3.0,48,0.00,,,0.00,VWS V14.01,2013-02-03 01:29:00,
2013-02-02 17:59:00,58.6,42.0,30.07,East,79,0.0,3.0,54,0.00,,,0.00,VWS V14.01,2013-02-03 01:59:00,
2013-02-02 18:29:00,57.6,40.6,30.07,East,79,0.0,2.0,53,0.00,,,0.00,VWS V14.01,2013-02-03 02:29:00,
2013-02-02 18:59:00,56.9,40.4,30.08,ENE,78,0.0,5.0,54,0.00,,,0.00,VWS V14.01,2013-02-03 02:59:00,
2013-02-02 19:29:00,56.2,42.1,30.08,ENE,78,0.0,2.0,59,0.00,,,0.00,VWS V14.01,2013-02-03 03:29:00,
2013-02-02 19:59:00,56.1,41.1,30.09,ENE,77,0.0,3.0,57,0.00,,,0.00,VWS V14.01,2013-02-03 03:59:00,
2013-02-02 20:29:00,55.7,42.0,30.09,ENE,77,0.0,3.0,60,0.00,,,0.00,VWS V14.01,2013-02-03 04:29:00,
2013-02-02 20:59:00,55.3,41.7,30.08,ENE,77,2.0,3.0,60,0.00,,,0.00,VWS V14.01,2013-02-03 04:59:00,
2013-02-02 21:29:00,55.1,41.5,30.08,ENE,77,0.0,3.0,60,0.00,,,0.00,VWS V14.01,2013-02-03 05:29:00,
2013-02-02 21:59:00,55.1,41.9,30.08,ENE,77,0.0,5.0,61,0.00,,,0.00,VWS V14.01,2013-02-03 05:59:00,
2013-02-02 22:29:00,53.8,41.9,30.07,East,88,3.0,6.0,64,0.00,,,0.00,VWS V14.01,2013-02-03 06:29:00,
2013-02-02 22:59:00,53.9,41.6,30.07,East,84,3.0,6.0,63,0.00,,,0.00,VWS V14.01,2013-02-03 06:59:00,
2013-02-02 23:29:00,53.8,41.1,30.06,East,83,0.0,5.0,62,0.00,,,0.00,VWS V14.01,2013-02-03 07:29:00,
2013-02-02 23:59:00,54.6,38.3,30.04,ENE,69,2.0,6.0,54,0.00,,,0.00,VWS V14.01,2013-02-03 07:59:00,